createdAt,value
2019-01-03T00:02:31.272Z,5.17
2019-01-03T00:05:17.772Z,5.30
2019-01-03T00:07:50.772Z,5.80
2019-01-03T00:10:23.737Z,6.00
2019-01-03T00:13:09.908Z,4.97
2019-01-03T00:15:56.120Z,5.22
2019-01-03T00:18:29.265Z,5.55
2019-01-03T00:21:17.561Z,5.87
2019-01-03T00:24:03.528Z,6.58
2019-01-03T00:26:33.744Z,5.55
2019-01-03T00:29:18.692Z,6.17
2019-01-03T00:32:05.233Z,6.17
2019-01-03T00:34:41.505Z,5.72
2019-01-03T00:37:20.811Z,6.47
2019-01-03T00:39:51.052Z,5.97
2019-01-03T00:42:33.097Z,6.20
2019-01-03T00:45:09.364Z,5.78
2019-01-03T00:47:51.505Z,7.72
2019-01-03T00:50:39.291Z,8.08
2019-01-03T00:53:09.486Z,7.95
2019-01-03T00:55:55.901Z,7.72
2019-01-03T00:58:26.095Z,7.15
2019-01-03T01:01:05.093Z,6.58
2019-01-03T01:03:51.013Z,6.10
2019-01-03T01:06:24.016Z,6.55
2019-01-03T01:08:56.947Z,5.90
2019-01-03T01:11:42.936Z,6.90
2019-01-03T01:14:21.831Z,5.70
2019-01-03T01:16:52.060Z,6.37
2019-01-03T01:19:22.261Z,5.25
2019-01-03T01:21:52.486Z,6.08
2019-01-03T01:24:25.691Z,6.47
2019-01-03T01:27:11.921Z,6.40
2019-01-03T01:29:58.403Z,6.30
2019-01-03T01:32:28.628Z,5.90
2019-01-03T01:35:14.804Z,4.90
2019-01-03T01:37:47.760Z,5.15
2019-01-03T01:40:20.643Z,6.62
2019-01-03T01:43:06.634Z,5.83
2019-01-03T01:45:52.840Z,5.37
2019-01-03T01:48:39.085Z,6.00
2019-01-03T01:51:21.082Z,5.83
2019-01-03T01:53:51.224Z,5.78
2019-01-03T01:56:37.722Z,4.97
2019-01-03T01:59:24.153Z,4.95
2019-01-03T02:02:00.104Z,5.30
2019-01-03T02:04:46.131Z,4.92
2019-01-03T02:07:16.356Z,5.08
2019-01-03T02:09:58.024Z,4.78
2019-01-03T02:12:30.961Z,5.70
2019-01-03T02:15:06.572Z,5.55
2019-01-03T02:17:36.805Z,5.35
2019-01-03T02:20:24.161Z,5.72
2019-01-03T02:23:03.220Z,6.22
2019-01-03T02:25:45.319Z,5.30
2019-01-03T02:28:15.516Z,5.70
2019-01-03T02:30:45.779Z,6.78
2019-01-03T02:33:30.821Z,5.65
2019-01-03T02:36:01.012Z,5.10
2019-01-03T02:38:31.242Z,5.42
2019-01-03T02:41:01.433Z,5.40
2019-01-03T02:43:40.553Z,6.62
2019-01-03T02:46:13.240Z,6.25
2019-01-03T02:48:59.472Z,5.90
2019-01-03T02:51:41.741Z,5.75
2019-01-03T02:54:20.788Z,5.62
2019-01-03T02:57:00.029Z,6.25
2019-01-03T02:59:39.242Z,5.65
2019-01-03T03:02:09.441Z,5.00
2019-01-03T03:04:39.663Z,4.90
2019-01-03T03:07:18.921Z,5.25
2019-01-03T03:09:49.139Z,5.00
2019-01-03T03:12:22.109Z,4.45
2019-01-03T03:14:52.327Z,4.85
2019-01-03T03:17:28.435Z,5.90
2019-01-03T03:20:10.523Z,4.87
2019-01-03T03:22:43.140Z,5.28
2019-01-03T03:25:16.330Z,5.17
2019-01-03T03:27:55.612Z,5.03
2019-01-03T03:30:41.718Z,5.45
2019-01-03T03:33:11.920Z,6.15
2019-01-03T03:35:47.888Z,17.40
2019-01-03T03:38:33.911Z,10.85
2019-01-03T03:41:07.106Z,8.58
2019-01-03T03:43:53.337Z,18.67
2019-01-03T03:46:26.264Z,13.78
2019-01-03T03:48:56.497Z,12.35
2019-01-03T03:51:26.697Z,9.10
2019-01-03T03:54:05.917Z,8.78
2019-01-03T03:56:38.812Z,9.75
2019-01-03T03:59:24.162Z,6.55
2019-01-03T04:02:03.060Z,6.37
2019-01-03T04:04:51.033Z,6.62
2019-01-03T04:07:30.218Z,5.90
2019-01-03T04:10:12.160Z,6.12
2019-01-03T04:12:54.463Z,4.70
2019-01-03T04:15:24.669Z,4.30
2019-01-03T04:17:54.855Z,6.28
2019-01-03T04:20:25.090Z,7.67
2019-01-03T04:23:00.948Z,7.05
2019-01-03T04:25:42.795Z,6.17
2019-01-03T04:28:12.992Z,6.17
2019-01-03T04:30:43.225Z,5.03
2019-01-03T04:33:31.109Z,6.28
2019-01-03T04:36:10.198Z,7.15
2019-01-03T04:38:51.962Z,7.03
2019-01-03T04:41:25.129Z,7.83
2019-01-03T04:43:55.321Z,8.08
2019-01-03T04:46:41.489Z,8.35
2019-01-03T04:49:27.729Z,8.48
2019-01-03T04:51:57.956Z,8.58
2019-01-03T04:54:30.866Z,7.58
2019-01-03T04:57:15.786Z,7.22
2019-01-03T05:00:00.870Z,8.05
2019-01-03T05:02:31.088Z,6.47
2019-01-03T05:05:07.241Z,5.25
2019-01-03T05:07:43.408Z,5.70
2019-01-03T05:10:16.580Z,6.25
2019-01-03T05:13:01.537Z,7.12
2019-01-03T05:15:34.481Z,6.62
2019-01-03T05:18:20.623Z,8.50
2019-01-03T05:20:53.680Z,8.35
2019-01-03T05:23:38.717Z,8.28
2019-01-03T05:26:14.758Z,8.25
2019-01-03T05:28:47.670Z,10.23
2019-01-03T05:31:33.953Z,9.75
2019-01-03T05:34:19.049Z,10.90
2019-01-03T05:37:05.276Z,9.20
2019-01-03T05:39:44.348Z,9.68
2019-01-03T05:42:23.265Z,9.00
2019-01-03T05:44:53.460Z,10.13
2019-01-03T05:47:26.797Z,9.15
2019-01-03T05:50:02.581Z,7.95
2019-01-03T05:52:44.677Z,7.20
2019-01-03T05:55:20.832Z,7.37
2019-01-03T05:57:51.057Z,6.05
2019-01-03T06:00:30.292Z,5.67
2019-01-03T06:03:06.123Z,5.80
2019-01-03T06:05:39.088Z,5.35
2019-01-03T06:08:12.297Z,5.45
2019-01-03T06:10:54.104Z,5.85
2019-01-03T06:13:30.185Z,6.08
2019-01-03T06:16:03.087Z,5.67
2019-01-03T06:18:39.287Z,6.53
2019-01-03T06:21:11.176Z,6.92
2019-01-03T06:23:44.488Z,6.85
2019-01-03T06:26:17.428Z,7.40
2019-01-03T06:28:47.912Z,7.90
2019-01-03T06:31:21.077Z,7.65
2019-01-03T06:33:51.305Z,9.95
2019-01-03T06:36:36.316Z,8.25
2019-01-03T06:39:17.620Z,8.18
2019-01-03T06:41:47.828Z,7.15
2019-01-03T06:44:20.877Z,6.95
2019-01-03T06:47:03.290Z,7.10
2019-01-03T06:49:39.726Z,6.85
2019-01-03T06:52:09.929Z,6.33
2019-01-03T06:54:55.669Z,6.47
2019-01-03T06:57:42.460Z,6.17
2019-01-03T07:00:18.427Z,6.28
2019-01-03T07:03:04.461Z,6.53
2019-01-03T07:05:43.429Z,6.80
2019-01-03T07:08:25.424Z,5.58
2019-01-03T07:10:58.967Z,5.92
2019-01-03T07:13:45.168Z,6.72
2019-01-03T07:16:29.406Z,7.17
2019-01-03T07:19:03.398Z,5.90
2019-01-03T07:21:33.697Z,6.28
2019-01-03T07:24:04.161Z,7.45
2019-01-03T07:26:51.003Z,9.23
2019-01-03T07:29:37.248Z,7.83
2019-01-03T07:32:27.033Z,8.05
2019-01-03T07:35:02.136Z,8.25
2019-01-03T07:37:35.195Z,9.25
2019-01-03T07:40:05.687Z,8.60
2019-01-03T07:42:51.886Z,9.63
2019-01-03T07:45:31.159Z,9.15
2019-01-03T07:48:15.637Z,9.60
2019-01-03T07:51:04.153Z,10.20
2019-01-03T07:53:34.352Z,8.85
2019-01-03T07:56:04.576Z,10.23
2019-01-03T07:58:52.637Z,9.15
2019-01-03T08:01:34.753Z,10.98
2019-01-03T08:04:10.803Z,11.35
2019-01-03T08:06:46.854Z,10.90
2019-01-03T08:09:33.387Z,11.93
2019-01-03T08:12:03.572Z,12.13
2019-01-03T08:14:36.821Z,13.75
2019-01-03T08:17:09.830Z,14.20
2019-01-03T08:19:42.776Z,13.90
2019-01-03T08:22:29.184Z,12.73
2019-01-03T08:25:05.849Z,10.98
2019-01-03T08:27:52.116Z,11.65
2019-01-03T08:30:22.341Z,9.50
2019-01-03T08:33:10.656Z,10.05
2019-01-03T08:35:43.449Z,9.73
2019-01-03T08:38:28.384Z,10.28
2019-01-03T08:41:10.400Z,10.25
2019-01-03T08:43:46.825Z,9.50
2019-01-03T08:46:25.657Z,9.15
2019-01-03T08:49:00.628Z,11.83
2019-01-03T08:51:33.264Z,11.00
2019-01-03T08:54:05.956Z,11.18
2019-01-03T08:56:54.254Z,10.78
2019-01-03T08:59:24.459Z,11.45
2019-01-03T09:02:03.616Z,11.18
2019-01-03T09:04:36.505Z,13.40
2019-01-03T09:07:06.740Z,11.68
2019-01-03T09:09:39.884Z,11.50
2019-01-03T09:12:10.111Z,11.50
2019-01-03T09:14:40.319Z,10.60
2019-01-03T09:17:12.980Z,12.10
2019-01-03T09:19:43.202Z,11.95
2019-01-03T09:22:28.319Z,13.68
2019-01-03T09:25:08.346Z,14.33
2019-01-03T09:27:41.614Z,13.93
2019-01-03T09:30:23.927Z,12.68
2019-01-03T09:32:54.162Z,11.38
2019-01-03T09:35:39.249Z,13.18
2019-01-03T09:38:15.068Z,10.80
2019-01-03T09:40:45.332Z,12.95
2019-01-03T09:43:15.575Z,11.40
2019-01-03T09:45:44.580Z,8.90
2019-01-03T09:48:13.127Z,9.30
2019-01-03T09:50:41.783Z,8.78
2019-01-03T09:53:10.332Z,9.10
2019-01-03T09:55:39.038Z,10.88
2019-01-03T09:58:07.624Z,8.68
2019-01-03T10:00:36.860Z,9.13
2019-01-03T10:03:05.978Z,9.10
2019-01-03T10:05:34.544Z,9.53
2019-01-03T10:08:03.140Z,8.93
2019-01-03T10:10:31.712Z,9.20
2019-01-03T10:13:00.295Z,9.85
2019-01-03T10:15:28.858Z,10.00
2019-01-03T10:17:57.453Z,9.60
2019-01-03T10:20:26.017Z,12.95
2019-01-03T10:22:54.610Z,11.43
2019-01-03T10:25:23.177Z,11.45
2019-01-03T10:27:51.769Z,12.33
2019-01-03T10:30:20.328Z,11.08
2019-01-03T10:32:48.923Z,8.83
2019-01-03T10:35:17.675Z,9.83
2019-01-03T10:37:46.413Z,8.98
2019-01-03T10:40:14.968Z,9.90
2019-01-03T10:42:43.557Z,10.40
2019-01-03T10:45:12.183Z,10.03
2019-01-03T10:47:40.784Z,9.60
2019-01-03T10:50:09.494Z,11.20
2019-01-03T10:52:38.115Z,10.23
2019-01-03T10:55:07.348Z,10.67
2019-01-03T10:57:35.929Z,10.20
2019-01-03T11:00:07.032Z,11.38
2019-01-03T11:02:35.588Z,12.40
2019-01-03T11:05:05.049Z,12.03
2019-01-03T11:07:34.582Z,11.83
2019-01-03T11:10:03.378Z,12.00
2019-01-03T11:12:31.946Z,11.25
2019-01-03T11:15:00.596Z,12.33
2019-01-03T11:17:29.169Z,13.10
2019-01-03T11:19:57.765Z,11.35
2019-01-03T11:22:26.332Z,11.80
2019-01-03T11:24:54.996Z,13.15
2019-01-03T11:27:23.566Z,11.90
2019-01-03T11:29:52.162Z,11.15
2019-01-03T11:32:20.728Z,11.25
2019-01-03T11:34:49.388Z,11.37
2019-01-03T11:37:18.815Z,11.47
2019-01-03T11:39:47.411Z,11.47
2019-01-03T11:42:15.970Z,11.93
2019-01-03T11:44:44.554Z,10.63
2019-01-03T11:47:13.120Z,11.23
2019-01-03T11:49:41.718Z,11.37
2019-01-03T11:52:10.741Z,10.90
2019-01-03T11:54:39.265Z,11.13
2019-01-03T11:57:07.828Z,11.40
2019-01-03T11:59:36.425Z,11.03
2019-01-03T12:02:05.231Z,11.33
2019-01-03T12:04:34.040Z,11.93
2019-01-03T12:07:02.816Z,11.83
2019-01-03T12:09:32.705Z,11.43
2019-01-03T12:12:01.317Z,12.23
2019-01-03T12:14:29.936Z,10.53
2019-01-03T12:16:58.853Z,12.27
2019-01-03T12:19:27.528Z,11.78
2019-01-03T12:21:56.089Z,13.50
2019-01-03T12:24:30.423Z,13.37
2019-01-03T12:26:54.877Z,10.73
2019-01-03T12:29:23.436Z,11.70
2019-01-03T12:31:52.029Z,12.07
2019-01-03T12:34:20.660Z,12.87
2019-01-03T12:36:49.265Z,13.78
2019-01-03T12:39:17.837Z,12.85
2019-01-03T12:41:46.424Z,13.00
2019-01-03T12:44:14.989Z,13.65
2019-01-03T12:46:43.576Z,14.47
2019-01-03T12:49:12.144Z,15.03
2019-01-03T12:51:40.816Z,14.03
2019-01-03T12:54:10.912Z,13.53
2019-01-03T12:56:39.550Z,13.50
2019-01-03T12:59:08.140Z,12.88
2019-01-03T13:01:39.413Z,13.13
2019-01-03T13:04:08.119Z,12.88
2019-01-03T13:06:36.748Z,13.60
2019-01-03T13:09:08.068Z,13.30
2019-01-03T13:11:36.680Z,13.43
2019-01-03T13:14:05.312Z,12.93
2019-01-03T13:16:33.905Z,12.37
2019-01-03T13:19:02.479Z,13.87
2019-01-03T13:21:31.068Z,12.73
2019-01-03T13:23:59.637Z,12.53
2019-01-03T13:26:28.236Z,12.23
2019-01-03T13:28:56.796Z,11.23
2019-01-03T13:31:25.388Z,12.10
2019-01-03T13:33:54.006Z,10.78
2019-01-03T13:36:22.604Z,10.80
2019-01-03T13:38:51.165Z,11.17
2019-01-03T13:41:19.729Z,6.70
2019-01-03T13:43:48.317Z,5.97
2019-01-03T13:46:16.874Z,6.30
2019-01-03T13:48:45.460Z,5.60
2019-01-03T13:51:14.032Z,6.30
2019-01-03T13:53:42.611Z,6.40
2019-01-03T13:56:11.164Z,7.87
2019-01-03T13:58:39.756Z,5.60
2019-01-03T14:01:08.389Z,5.73
2019-01-03T14:03:36.986Z,5.67
2019-01-03T14:06:05.541Z,6.10
2019-01-03T14:08:34.130Z,5.93
2019-01-03T14:11:02.687Z,6.43
2019-01-03T14:13:31.362Z,5.13
2019-01-03T14:15:59.922Z,7.10
2019-01-03T14:18:28.580Z,6.30
2019-01-03T14:20:57.145Z,6.37
2019-01-03T14:23:25.734Z,6.60
2019-01-03T14:25:54.305Z,6.57
2019-01-03T14:28:22.879Z,5.80
2019-01-03T14:30:51.524Z,6.67
2019-01-03T14:33:20.144Z,6.00
2019-01-03T14:35:48.700Z,6.80
2019-01-03T14:38:17.314Z,5.77
2019-01-03T14:40:45.868Z,9.80
2019-01-03T14:43:14.546Z,6.70
2019-01-03T14:45:43.092Z,5.27
2019-01-03T14:48:11.681Z,6.67
2019-01-03T14:50:40.249Z,6.30
2019-01-03T14:53:08.850Z,5.50
2019-01-03T14:55:37.415Z,6.43
2019-01-03T14:58:06.008Z,6.03
2019-01-03T15:00:34.772Z,5.30
2019-01-03T15:03:03.371Z,6.30
2019-01-03T15:05:31.921Z,6.90
2019-01-03T15:08:00.520Z,6.40
2019-01-03T15:10:29.074Z,7.27
2019-01-03T15:12:57.664Z,7.50
2019-01-03T15:15:26.219Z,7.33
2019-01-03T15:17:54.796Z,7.50
2019-01-03T15:20:23.429Z,7.07
2019-01-03T15:22:52.025Z,7.17
2019-01-03T15:25:20.584Z,7.77
2019-01-03T15:27:49.145Z,7.73
2019-01-03T15:30:17.732Z,8.00
2019-01-03T15:32:46.285Z,6.80
2019-01-03T15:35:14.882Z,7.10
2019-01-03T15:37:43.439Z,7.03
2019-01-03T15:40:12.030Z,5.90
2019-01-03T15:42:40.593Z,6.70
2019-01-03T15:45:09.248Z,6.30
2019-01-03T15:47:37.809Z,7.57
2019-01-03T15:50:07.229Z,7.47
2019-01-03T15:52:35.794Z,8.27
2019-01-03T15:55:04.926Z,7.40
2019-01-03T15:57:33.492Z,8.50
2019-01-03T16:00:02.079Z,7.73
2019-01-03T16:02:31.253Z,8.60
2019-01-03T16:04:59.836Z,9.37
2019-01-03T16:07:28.390Z,8.67
2019-01-03T16:09:56.982Z,8.80
2019-01-03T16:12:25.540Z,10.70
2019-01-03T16:14:54.131Z,10.77
2019-01-03T16:17:22.692Z,11.60
2019-01-03T16:19:51.280Z,10.70
2019-01-03T16:22:19.846Z,10.07
2019-01-03T16:24:48.432Z,10.13
2019-01-03T16:27:16.992Z,9.70
2019-01-03T16:29:45.580Z,9.00
2019-01-03T16:32:14.136Z,9.30
2019-01-03T16:34:42.704Z,10.47
2019-01-03T16:37:11.286Z,9.93
2019-01-03T16:39:39.845Z,9.33
2019-01-03T16:42:08.533Z,10.47
2019-01-03T16:44:37.100Z,11.40
2019-01-03T16:47:05.696Z,10.53
2019-01-03T16:49:34.257Z,10.40
2019-01-03T16:52:02.848Z,11.13
2019-01-03T16:54:31.414Z,10.50
2019-01-03T16:56:59.993Z,11.07
2019-01-03T16:59:28.547Z,13.00
2019-01-03T17:01:57.135Z,13.07
2019-01-03T17:04:25.705Z,14.00
2019-01-03T17:06:54.291Z,12.10
2019-01-03T17:09:22.852Z,10.20
2019-01-03T17:11:51.440Z,11.90
2019-01-03T17:14:20.002Z,10.97
2019-01-03T17:16:48.844Z,10.83
2019-01-03T17:19:17.395Z,9.90
2019-01-03T17:21:46.004Z,9.60
2019-01-03T17:24:14.549Z,9.67
2019-01-03T17:26:43.142Z,9.70
2019-01-03T17:29:11.695Z,10.10
2019-01-03T17:31:40.285Z,11.00
2019-01-03T17:34:08.849Z,12.00
2019-01-03T17:36:37.437Z,12.10
2019-01-03T17:39:06.638Z,11.90
2019-01-03T17:41:35.297Z,9.40
2019-01-03T17:44:03.856Z,9.47
2019-01-03T17:46:32.440Z,9.13
2019-01-03T17:49:01.000Z,9.70
2019-01-03T17:51:29.625Z,9.73
2019-01-03T17:53:58.187Z,9.03
2019-01-03T17:56:26.748Z,9.30
2019-01-03T17:58:55.333Z,8.50
2019-01-03T18:01:23.966Z,8.43
2019-01-03T18:03:52.545Z,9.10
2019-01-03T18:06:21.110Z,8.67
2019-01-03T18:08:49.697Z,8.40
2019-01-03T18:11:18.322Z,9.03
2019-01-03T18:13:46.908Z,8.40
2019-01-03T18:16:15.471Z,10.30
2019-01-03T18:18:44.059Z,9.50
2019-01-03T18:21:12.618Z,9.73
2019-01-03T18:23:41.200Z,9.93
2019-01-03T18:26:09.758Z,9.57
2019-01-03T18:28:38.344Z,9.33
2019-01-03T18:31:06.904Z,9.70
2019-01-03T18:33:35.487Z,9.63
2019-01-03T18:36:04.052Z,10.20
2019-01-03T18:38:32.640Z,9.73
2019-01-03T18:41:01.196Z,8.80
2019-01-03T18:43:29.781Z,9.30
2019-01-03T18:45:58.340Z,9.07
2019-01-03T18:48:26.931Z,8.17
2019-01-03T18:50:55.488Z,8.77
2019-01-03T18:53:24.072Z,8.63
2019-01-03T18:55:52.628Z,8.80
2019-01-03T18:58:21.286Z,9.60
2019-01-03T19:00:49.846Z,8.90
2019-01-03T19:03:18.431Z,8.87
2019-01-03T19:05:46.990Z,8.43
2019-01-03T19:08:15.550Z,8.23
2019-01-03T19:10:44.134Z,7.93
2019-01-03T19:13:12.692Z,8.10
2019-01-03T19:15:41.284Z,7.40
2019-01-03T19:18:09.845Z,7.67
2019-01-03T19:20:38.429Z,7.83
2019-01-03T19:23:06.990Z,7.40
2019-01-03T19:25:35.573Z,8.40
2019-01-03T19:28:04.133Z,8.47
2019-01-03T19:30:32.720Z,9.00
2019-01-03T19:33:01.275Z,8.13
2019-01-03T19:35:29.860Z,7.90
2019-01-03T19:37:58.416Z,8.27
2019-01-03T19:40:27.006Z,8.83
2019-01-03T19:42:55.624Z,8.93
2019-01-03T19:45:25.245Z,8.93
2019-01-03T19:47:53.868Z,9.13
2019-01-03T19:50:22.465Z,9.37
2019-01-03T19:52:51.016Z,9.13
2019-01-03T19:55:19.677Z,9.50
2019-01-03T19:57:48.228Z,9.63
2019-01-03T20:00:16.819Z,9.83
2019-01-03T20:02:45.380Z,10.73
2019-01-03T20:05:14.041Z,10.10
2019-01-03T20:07:42.600Z,9.63
2019-01-03T20:10:12.650Z,9.47
2019-01-03T20:12:41.208Z,9.77
2019-01-03T20:15:12.023Z,8.83
2019-01-03T20:17:40.664Z,10.17
2019-01-03T20:20:10.462Z,8.90
2019-01-03T20:22:39.117Z,8.90
2019-01-03T20:25:09.417Z,9.20
2019-01-03T20:27:37.998Z,9.40
2019-01-03T20:30:09.188Z,9.17
2019-01-03T20:32:37.773Z,9.53
2019-01-03T20:35:06.870Z,9.77
2019-01-03T20:37:35.459Z,9.27
2019-01-03T20:40:06.258Z,9.57
2019-01-03T20:42:34.917Z,10.33
2019-01-03T20:45:04.051Z,10.23
2019-01-03T20:47:32.671Z,10.00
2019-01-03T20:50:01.326Z,11.57
2019-01-03T20:52:29.919Z,11.93
2019-01-03T20:54:58.553Z,12.13
2019-01-03T20:57:27.145Z,12.00
2019-01-03T20:59:55.701Z,12.77
2019-01-03T21:02:24.288Z,13.10
2019-01-03T21:04:52.861Z,12.23
2019-01-03T21:07:21.447Z,12.40
2019-01-03T21:09:50.105Z,11.60
2019-01-03T21:12:18.792Z,11.43
2019-01-03T21:14:47.381Z,12.27
2019-01-03T21:17:15.971Z,11.50
2019-01-03T21:19:44.536Z,10.30
2019-01-03T21:22:13.128Z,10.53
2019-01-03T21:24:41.698Z,10.50
2019-01-03T21:27:10.380Z,11.87
2019-01-03T21:29:39.008Z,10.73
2019-01-03T21:32:07.664Z,11.00
2019-01-03T21:34:36.291Z,10.20
2019-01-03T21:37:04.958Z,10.27
2019-01-03T21:39:33.530Z,10.27
2019-01-03T21:42:02.252Z,11.43
2019-01-03T21:44:30.808Z,10.53
2019-01-03T21:46:59.440Z,10.10
2019-01-03T21:49:28.043Z,11.63
2019-01-03T21:51:56.617Z,11.20
2019-01-03T21:54:25.205Z,10.60
2019-01-03T21:56:53.769Z,11.47
2019-01-03T21:59:22.362Z,12.57
2019-01-03T22:01:50.918Z,13.47
2019-01-03T22:04:19.508Z,12.57
2019-01-03T22:06:48.068Z,12.10
2019-01-03T22:09:16.662Z,11.70
2019-01-03T22:11:45.220Z,14.43
2019-01-03T22:14:13.880Z,11.70
2019-01-03T22:16:42.453Z,11.20
2019-01-03T22:19:11.044Z,12.13
2019-01-03T22:21:39.672Z,12.23
2019-01-03T22:24:08.265Z,12.33
2019-01-03T22:26:36.825Z,11.77
2019-01-03T22:29:05.408Z,11.10
2019-01-03T22:31:33.968Z,10.90
2019-01-03T22:34:02.555Z,10.70
2019-01-03T22:36:31.112Z,10.90
2019-01-03T22:38:59.699Z,10.00
2019-01-03T22:41:28.264Z,10.00
2019-01-03T22:43:56.911Z,10.90
2019-01-03T22:46:25.476Z,10.77
2019-01-03T22:48:54.059Z,11.20
2019-01-03T22:51:22.629Z,13.27
2019-01-03T22:53:51.218Z,14.80
2019-01-03T22:56:19.782Z,13.70
2019-01-03T22:58:48.377Z,14.83
2019-01-03T23:01:17.068Z,13.17
2019-01-03T23:03:45.664Z,13.43
2019-01-03T23:06:14.308Z,13.13
2019-01-03T23:08:42.863Z,13.13
2019-01-03T23:11:11.451Z,12.50
2019-01-03T23:13:40.013Z,26.27
2019-01-03T23:16:08.601Z,12.23
2019-01-03T23:18:37.163Z,12.77
2019-01-03T23:21:05.754Z,13.03
2019-01-03T23:23:34.313Z,12.90
2019-01-03T23:26:04.540Z,13.10
2019-01-03T23:28:33.101Z,13.60
2019-01-03T23:31:01.693Z,13.50
2019-01-03T23:33:30.252Z,13.60
2019-01-03T23:35:59.177Z,12.87
2019-01-03T23:38:27.740Z,13.73
2019-01-03T23:40:56.327Z,14.03
2019-01-03T23:43:24.880Z,12.63
2019-01-03T23:45:53.476Z,12.73
2019-01-03T23:48:22.038Z,12.77
2019-01-03T23:50:50.693Z,12.20
2019-01-03T23:53:19.254Z,11.77
2019-01-03T23:55:50.892Z,12.90
2019-01-03T23:58:19.557Z,11.60
